Time;durP1;ratioP1;P1;durP2;ratioP2;P2;SDS_P1;SDS_P2;PMS_P1;PMS_P2;Temp;Humidity;BMP_temperature;BMP_pressure;BME280_temperature;BME280_humidity;BME280_pressure;Samples;Min_cycle;Max_cycle;Signal;HPM_P1;HPM_P2
2021/03/21 00:01:30;;;;;;;40.53;22.30;;;;;;;20.03;67.34;103196.88;4965588;28;20532;-64
2021/03/21 00:03:55;;;;;;;38.75;22.23;;;;;;;20.03;67.47;103196.03;4969052;28;20134;-64
2021/03/21 00:06:21;;;;;;;36.78;22.40;;;;;;;20.02;67.52;103200.53;4969834;28;20043;-63
2021/03/21 00:08:47;;;;;;;37.92;21.92;;;;;;;20.02;67.43;103192.53;4970443;28;20031;-63
2021/03/21 00:11:13;;;;;;;36.80;22.38;;;;;;;20.00;67.38;103193.66;4971036;28;20138;-63
2021/03/21 00:13:38;;;;;;;34.60;20.52;;;;;;;19.99;67.18;103178.66;4968481;28;20063;-63
2021/03/21 00:16:06;;;;;;;38.95;20.98;;;;;;;19.98;67.42;103179.66;4969137;28;20041;-63
2021/03/21 00:18:37;;;;;;;37.10;20.90;;;;;;;19.97;67.15;103186.81;4966210;28;20039;-62
2021/03/21 00:21:05;;;;;;;37.38;21.00;;;;;;;19.95;67.47;103180.78;4971159;28;20044;-63
2021/03/21 00:23:31;;;;;;;33.95;19.90;;;;;;;19.95;67.46;103190.59;4969433;28;20110;-63
2021/03/21 00:25:56;;;;;;;35.08;21.00;;;;;;;19.95;67.06;103188.78;4970618;28;20035;-63
2021/03/21 00:28:27;;;;;;;31.40;19.27;;;;;;;19.92;67.22;103189.06;4967982;28;20528;-63
2021/03/21 00:30:54;;;;;;;32.67;20.15;;;;;;;19.92;66.92;103193.56;4969715;28;20108;-63
2021/03/21 00:33:23;;;;;;;33.20;19.02;;;;;;;19.90;67.31;103188.38;4970090;28;20031;-63
2021/03/21 00:35:53;;;;;;;34.42;18.40;;;;;;;19.90;66.97;103191.03;4968353;28;20030;-63
2021/03/21 00:38:38;;;;;;;32.45;18.73;;;;;;;19.85;67.24;103201.25;4971153;28;20030;-63
2021/03/21 00:41:05;;;;;;;28.23;18.08;;;;;;;19.87;67.11;103206.44;4968875;28;20050;-63
2021/03/21 00:43:31;;;;;;;32.63;19.02;;;;;;;19.86;67.31;103197.59;4969574;28;20035;-64
2021/03/21 00:45:57;;;;;;;32.10;18.15;;;;;;;19.85;66.81;103187.09;4970406;28;20402;-63
2021/03/21 00:48:29;;;;;;;30.40;17.80;;;;;;;19.83;66.95;103195.22;4969659;28;20445;-63
2021/03/21 00:50:55;;;;;;;27.70;16.75;;;;;;;19.83;66.73;103189.06;4969741;28;20030;-63
2021/03/21 00:53:21;;;;;;;29.77;17.42;;;;;;;19.82;67.16;103179.38;4970295;28;20046;-63
2021/03/21 00:55:47;;;;;;;27.60;17.45;;;;;;;19.81;66.92;103181.22;4964842;28;20035;-63
2021/03/21 00:58:13;;;;;;;26.52;16.23;;;;;;;19.80;67.15;103184.00;4951311;28;20051;-63
2021/03/21 01:00:43;;;;;;;27.75;16.67;;;;;;;19.79;66.91;103177.84;4965586;28;20105;-63
2021/03/21 01:03:09;;;;;;;27.80;16.77;;;;;;;19.79;66.72;103174.34;4970258;28;20053;-63
2021/03/21 01:05:38;;;;;;;28.52;15.48;;;;;;;19.77;67.02;103166.50;4977464;28;20501;-63
2021/03/21 01:08:37;;;;;;;27.20;15.80;;;;;;;19.72;67.19;103176.72;4963731;28;20038;-63
2021/03/21 01:11:16;;;;;;;25.52;15.25;;;;;;;19.74;66.86;103166.78;4967938;28;20058;-63
2021/03/21 01:13:42;;;;;;;25.65;15.85;;;;;;;19.73;66.97;103155.28;4970056;28;20053;-63
2021/03/21 01:16:16;;;;;;;25.35;14.95;;;;;;;19.71;66.84;103167.03;4958840;28;20118;-63
2021/03/21 01:18:42;;;;;;;23.38;14.88;;;;;;;19.71;66.81;103161.72;4967009;28;20031;-63
2021/03/21 01:21:12;;;;;;;25.17;15.15;;;;;;;19.72;67.00;103166.06;4970933;28;20364;-63
2021/03/21 01:23:42;;;;;;;24.02;14.25;;;;;;;19.70;66.91;103174.19;4968748;28;20441;-63
2021/03/21 01:26:13;;;;;;;24.25;14.30;;;;;;;19.69;66.79;103163.69;4969519;28;20460;-63
2021/03/21 01:28:40;;;;;;;21.88;13.88;;;;;;;19.69;66.56;103161.84;4968602;28;20109;-63
2021/03/21 01:31:09;;;;;;;23.20;13.80;;;;;;;19.67;66.56;103158.50;4969564;28;20039;-63
2021/03/21 01:33:35;;;;;;;23.17;14.05;;;;;;;19.67;66.45;103157.66;4968824;28;20031;-63
2021/03/21 01:36:03;;;;;;;25.08;14.15;;;;;;;19.66;66.64;103167.47;4967267;28;20046;-63
2021/03/21 01:38:29;;;;;;;21.77;13.88;;;;;;;19.65;67.04;103171.13;4968848;28;20074;-63
2021/03/21 01:40:59;;;;;;;21.30;12.48;;;;;;;19.65;66.54;103172.94;4968690;28;20211;-63
2021/03/21 01:43:34;;;;;;;21.88;12.98;;;;;;;19.62;66.81;103165.25;4967509;28;20094;-63
2021/03/21 01:46:00;;;;;;;21.75;12.95;;;;;;;19.64;66.55;103160.59;4969652;28;20050;-63
2021/03/21 01:48:29;;;;;;;23.15;13.32;;;;;;;19.63;66.25;103161.59;4968563;28;20201;-63
2021/03/21 01:51:00;;;;;;;20.30;12.02;;;;;;;19.60;66.26;103165.38;4969104;28;20377;-63
2021/03/21 01:53:29;;;;;;;21.85;12.85;;;;;;;19.61;66.16;103168.88;4968961;28;20046;-63
2021/03/21 01:55:55;;;;;;;19.17;12.25;;;;;;;19.61;66.26;103166.22;4968003;28;20678;-63
2021/03/21 01:58:23;;;;;;;19.65;12.63;;;;;;;19.59;66.55;103155.72;4959003;28;20034;-63
2021/03/21 02:00:52;;;;;;;19.88;11.40;;;;;;;19.58;66.23;103159.34;4973203;28;20759;-63
2021/03/21 02:03:18;;;;;;;19.70;11.57;;;;;;;19.58;66.07;103164.69;4968003;28;20382;-63
2021/03/21 02:05:43;;;;;;;20.25;11.73;;;;;;;19.58;65.96;103158.50;4976397;28;20047;-63
2021/03/21 02:08:44;;;;;;;19.83;12.43;;;;;;;19.54;66.12;103149.94;4959227;28;20145;-63
2021/03/21 02:11:38;;;;;;;18.30;11.00;;;;;;;19.52;66.40;103143.06;4965740;28;20055;-63
2021/03/21 02:14:18;;;;;;;18.92;11.10;;;;;;;19.53;66.36;103134.09;4960543;28;20043;-63
2021/03/21 02:16:59;;;;;;;15.82;10.55;;;;;;;19.51;66.07;103130.72;4967159;28;20082;-63
2021/03/21 02:20:16;;;;;;;17.25;10.52;;;;;;;19.49;65.92;103127.38;4967503;28;20039;-63
2021/03/21 02:22:49;;;;;;;17.83;11.15;;;;;;;19.51;65.85;103128.06;4940631;28;20070;-64
2021/03/21 02:25:27;;;;;;;21.02;11.70;;;;;;;19.49;65.84;103122.88;4967853;28;20749;-63
2021/03/21 02:28:09;;;;;;;17.67;10.25;;;;;;;19.51;65.85;103117.41;4968585;28;20033;-63
2021/03/21 02:30:41;;;;;;;16.02;10.00;;;;;;;19.50;66.00;103111.25;4968358;28;20046;-63
2021/03/21 02:33:18;;;;;;;15.40;9.93;;;;;;;19.47;66.16;103100.88;4977322;28;20117;-63
2021/03/21 02:36:01;;;;;;;14.88;9.98;;;;;;;19.48;65.90;103107.06;4970321;28;20737;-63
2021/03/21 02:38:43;;;;;;;17.58;10.18;;;;;;;19.47;65.68;103111.53;4968522;28;20057;-63
2021/03/21 02:41:17;;;;;;;15.30;9.50;;;;;;;19.47;65.71;103114.19;4968451;28;20039;-63
2021/03/21 02:43:51;;;;;;;15.73;10.10;;;;;;;19.47;65.71;103111.53;4966206;28;20042;-63
2021/03/21 02:46:39;;;;;;;13.93;9.63;;;;;;;19.44;65.94;103098.50;4969757;28;20038;-63
2021/03/21 02:49:23;;;;;;;16.85;9.45;;;;;;;19.44;65.55;103101.16;4967793;28;20484;-63
2021/03/21 02:51:54;;;;;;;13.93;9.57;;;;;;;19.45;65.44;103105.50;4966655;28;20027;-63
2021/03/21 02:54:26;;;;;;;12.25;8.07;;;;;;;19.45;65.40;103110.84;4965931;28;20118;-63
2021/03/21 02:56:59;;;;;;;14.65;8.93;;;;;;;19.44;65.72;103103.84;4969442;28;20112;-63
2021/03/21 02:59:34;;;;;;;13.73;9.20;;;;;;;19.43;65.43;103104.81;4964235;28;20038;-63
2021/03/21 03:02:24;;;;;;;14.55;8.60;;;;;;;19.41;65.30;103104.13;5031577;22;20671;-65
2021/03/21 03:05:19;;;;;;;16.02;9.07;;;;;;;19.39;65.34;103122.88;4998755;28;20034;-64
2021/03/21 03:07:59;;;;;;;12.93;8.25;;;;;;;19.40;65.45;103103.25;5005835;28;20046;-65
2021/03/21 03:10:30;;;;;;;12.48;8.45;;;;;;;19.41;65.52;103096.13;5008113;28;20112;-64
2021/03/21 03:13:05;;;;;;;14.05;8.60;;;;;;;19.40;65.50;103099.75;5007659;28;20038;-63
2021/03/21 03:15:32;;;;;;;12.10;7.57;;;;;;;19.41;65.04;103098.78;5011194;28;20454;-63
2021/03/21 03:18:13;;;;;;;12.38;7.82;;;;;;;19.40;65.18;103097.94;5021453;28;20048;-63
2021/03/21 03:20:42;;;;;;;14.05;8.52;;;;;;;19.40;65.31;103105.06;5011875;28;20033;-63
2021/03/21 03:23:38;;;;;;;11.45;7.78;;;;;;;19.38;65.11;103091.06;5011579;28;20045;-63
2021/03/21 03:26:14;;;;;;;11.00;7.43;;;;;;;19.38;64.84;103105.22;5011435;28;20034;-63
2021/03/21 03:28:46;;;;;;;11.82;8.25;;;;;;;19.37;65.06;103102.69;5010453;28;20025;-67
2021/03/21 03:31:24;;;;;;;12.85;7.25;;;;;;;19.36;64.75;103095.69;5000106;28;20045;-63
2021/03/21 03:33:50;;;;;;;10.85;7.30;;;;;;;19.37;64.95;103092.88;5011188;28;20059;-66
2021/03/21 03:36:17;;;;;;;12.05;6.72;;;;;;;19.36;64.81;103091.22;5005724;28;20071;-63
2021/03/21 03:38:45;;;;;;;12.35;6.90;;;;;;;19.36;64.90;103090.38;5009344;28;20061;-63
2021/03/21 03:41:22;;;;;;;13.63;7.13;;;;;;;19.36;64.70;103095.69;5016396;28;20075;-70
2021/03/21 03:44:06;;;;;;;11.77;6.95;;;;;;;19.35;64.50;103078.88;5026018;28;20029;-67
2021/03/21 03:46:42;;;;;;;12.20;7.32;;;;;;;19.34;64.60;103071.03;5015043;28;20034;-63
2021/03/21 03:49:14;;;;;;;10.95;6.80;;;;;;;19.34;64.75;103077.22;5007099;28;20034;-63
2021/03/21 03:52:16;;;;;;;9.82;6.38;;;;;;;19.30;64.67;103081.13;5007047;28;20108;-64
2021/03/21 03:55:03;;;;;;;10.95;6.97;;;;;;;19.31;64.71;103095.28;5011336;28;20026;-63
2021/03/21 03:57:55;;;;;;;9.93;6.38;;;;;;;19.30;64.72;103081.13;5002160;28;20030;-63
2021/03/21 04:00:45;;;;;;;11.18;6.55;;;;;;;19.29;64.91;103073.28;5004696;28;20050;-66
2021/03/21 04:03:24;;;;;;;9.65;6.32;;;;;;;19.30;64.76;103070.50;5011213;28;20030;-67
2021/03/21 04:05:56;;;;;;;9.57;6.40;;;;;;;19.31;64.42;103076.66;5001586;28;20026;-63
2021/03/21 04:08:44;;;;;;;12.32;6.78;;;;;;;19.29;64.82;103086.59;5009071;28;20030;-65
2021/03/21 04:11:24;;;;;;;12.10;6.25;;;;;;;19.29;64.81;103078.63;5010382;28;20529;-63
2021/03/21 04:14:06;;;;;;;8.82;6.28;;;;;;;19.28;64.66;103072.47;5013356;28;20079;-62
2021/03/21 04:16:38;;;;;;;9.65;6.10;;;;;;;19.29;64.45;103075.97;5015420;28;20030;-63
2021/03/21 04:19:08;;;;;;;9.23;6.20;;;;;;;19.29;64.50;103082.13;5010339;28;20042;-62
2021/03/21 04:21:47;;;;;;;9.05;5.53;;;;;;;19.28;64.43;103082.25;5010709;28;20508;-68
2021/03/21 04:24:24;;;;;;;9.30;5.68;;;;;;;19.28;64.45;103079.59;5005636;28;20033;-62
2021/03/21 04:26:59;;;;;;;10.90;6.50;;;;;;;19.27;64.49;103064.63;5010205;28;20048;-66
2021/03/21 04:29:31;;;;;;;10.55;6.07;;;;;;;19.27;64.57;103064.63;5009461;28;20100;-62
2021/03/21 04:32:00;;;;;;;8.75;5.88;;;;;;;19.29;64.27;103078.63;5010482;28;20532;-63
2021/03/21 04:34:28;;;;;;;8.98;5.63;;;;;;;19.28;64.57;103071.63;5008337;28;20426;-63
2021/03/21 04:36:56;;;;;;;9.90;5.65;;;;;;;19.27;64.45;103068.13;5010965;28;20080;-63
2021/03/21 04:39:29;;;;;;;10.05;6.00;;;;;;;19.27;64.35;103069.94;5001602;28;20057;-65
2021/03/21 04:42:15;;;;;;;9.73;5.50;;;;;;;19.24;64.61;103064.88;5008655;28;20077;-63
2021/03/21 04:44:51;;;;;;;9.82;5.63;;;;;;;19.26;64.27;103070.91;4997270;28;20041;-65
2021/03/21 04:47:23;;;;;;;8.27;5.30;;;;;;;19.25;64.40;103058.56;5009817;28;20121;-63
2021/03/21 04:49:49;;;;;;;9.40;5.60;;;;;;;19.25;64.14;103059.44;5015344;28;20041;-63
2021/03/21 04:52:15;;;;;;;8.88;5.32;;;;;;;19.25;64.14;103058.56;5009415;28;20326;-64
2021/03/21 04:54:43;;;;;;;10.23;5.60;;;;;;;19.25;64.45;103062.09;5008249;28;20481;-66
2021/03/21 04:57:29;;;;;;;7.88;5.45;;;;;;;19.23;63.96;103057.88;5008774;28;20041;-64
2021/03/21 04:59:55;;;;;;;8.95;5.25;;;;;;;19.24;64.06;103076.34;5009556;28;20088;-64
2021/03/21 05:02:30;;;;;;;10.32;5.18;;;;;;;19.23;64.25;103089.81;5007382;28;20078;-63
2021/03/21 05:05:08;;;;;;;8.18;5.18;;;;;;;19.22;64.18;103082.78;5009813;28;20392;-63
2021/03/21 05:07:59;;;;;;;8.98;5.40;;;;;;;19.21;64.01;103065.16;5008965;28;20033;-63
2021/03/21 05:10:34;;;;;;;7.90;5.15;;;;;;;19.21;64.36;103066.00;5007719;28;20042;-64
2021/03/21 05:12:59;;;;;;;8.45;5.10;;;;;;;19.23;64.15;103073.84;5008446;28;20033;-64
2021/03/21 05:15:31;;;;;;;7.10;4.63;;;;;;;19.22;64.25;103082.78;5007708;28;20045;-66
2021/03/21 05:18:10;;;;;;;8.25;5.53;;;;;;;19.22;64.16;103082.78;5009756;28;20075;-63
2021/03/21 05:20:35;;;;;;;7.55;4.55;;;;;;;19.23;64.22;103081.81;5009188;28;20038;-63
2021/03/21 05:23:40;;;;;;;7.35;4.35;;;;;;;19.19;63.72;103067.13;5009335;28;20034;-63
2021/03/21 05:26:17;;;;;;;8.15;4.57;;;;;;;19.21;64.11;103078.47;5011804;28;20124;-64
2021/03/21 05:28:45;;;;;;;6.88;4.43;;;;;;;19.21;63.77;103081.97;5008866;28;20661;-62
2021/03/21 05:31:11;;;;;;;6.25;4.50;;;;;;;19.21;64.02;103092.59;5008159;28;20037;-68
2021/03/21 05:33:38;;;;;;;6.70;4.47;;;;;;;19.21;64.07;103086.44;4991184;28;20117;-63
2021/03/21 05:36:16;;;;;;;7.55;4.47;;;;;;;19.20;63.83;103077.63;4980136;28;20034;-62
2021/03/21 05:38:59;;;;;;;7.00;4.47;;;;;;;19.18;63.91;103068.09;5017993;28;20038;-63
2021/03/21 05:41:42;;;;;;;6.90;4.13;;;;;;;19.17;63.67;103064.59;5007961;28;20041;-62
2021/03/21 05:44:17;;;;;;;8.47;4.90;;;;;;;19.18;63.74;103073.41;5006895;28;20426;-62
2021/03/21 05:47:33;;;;;;;6.57;4.50;;;;;;;19.16;64.00;103094.84;5008645;28;20229;-63
2021/03/21 05:50:20;;;;;;;6.45;3.70;;;;;;;19.15;63.71;103090.50;4979130;28;20038;-63
2021/03/21 05:53:07;;;;;;;6.90;4.47;;;;;;;19.15;63.89;103072.72;5007138;28;20045;-63
2021/03/21 05:55:53;;;;;;;6.60;4.00;;;;;;;19.15;63.93;103079.88;5002107;28;20029;-62
2021/03/21 05:58:41;;;;;;;6.57;4.00;;;;;;;19.15;63.43;103087.84;5003451;28;20092;-62
2021/03/21 06:01:31;;;;;;;7.55;4.20;;;;;;;19.17;63.66;103082.38;5009096;28;20133;-64
2021/03/21 06:04:28;;;;;;;5.22;3.58;;;;;;;19.15;63.75;103082.53;5004112;28;20097;-62
2021/03/21 06:07:12;;;;;;;6.63;3.97;;;;;;;19.12;63.64;103086.31;5005972;28;20106;-63
2021/03/21 06:10:04;;;;;;;6.78;3.88;;;;;;;19.13;63.47;103089.81;5008621;28;20452;-61
2021/03/21 06:12:44;;;;;;;6.20;3.67;;;;;;;19.13;63.58;103084.50;4972878;28;20831;-62
2021/03/21 06:15:29;;;;;;;7.07;3.83;;;;;;;19.12;63.61;103083.66;5004037;28;20141;-62
2021/03/21 06:18:30;;;;;;;5.28;3.38;;;;;;;19.12;63.69;103093.44;4990600;28;20153;-62
2021/03/21 06:21:19;;;;;;;6.32;3.63;;;;;;;19.13;63.68;103081.84;4999787;28;20040;-63
2021/03/21 06:23:45;;;;;;;5.80;3.65;;;;;;;19.13;63.27;103080.00;5003654;28;20037;-63
2021/03/21 06:26:36;;;;;;;6.63;3.88;;;;;;;19.11;63.71;103081.97;5007926;28;20084;-68
2021/03/21 06:29:37;;;;;;;6.13;3.95;;;;;;;19.09;63.26;103099.91;5009585;28;20455;-63
2021/03/21 06:32:18;;;;;;;6.80;3.90;;;;;;;19.12;63.68;103106.75;5012227;28;20040;-62
2021/03/21 06:34:58;;;;;;;6.78;3.63;;;;;;;19.12;63.54;103093.44;5008169;28;20034;-62
2021/03/21 06:37:51;;;;;;;5.50;3.50;;;;;;;19.09;63.47;103094.56;5004391;28;20026;-62
2021/03/21 06:40:41;;;;;;;6.28;3.97;;;;;;;19.08;63.54;103102.66;5008032;28;20401;-65
2021/03/21 06:43:15;;;;;;;5.70;3.63;;;;;;;19.10;63.44;103106.91;5000117;28;20068;-64
2021/03/21 06:46:01;;;;;;;4.95;3.50;;;;;;;19.09;63.20;103113.19;5008024;28;20168;-63
2021/03/21 06:48:32;;;;;;;6.28;3.50;;;;;;;19.10;63.47;103112.22;5008593;28;20034;-65
2021/03/21 06:51:07;;;;;;;5.20;3.20;;;;;;;19.10;63.17;103112.22;5015563;28;20080;-62
2021/03/21 06:54:14;;;;;;;5.85;3.45;;;;;;;19.08;63.16;103113.31;5011613;28;20026;-62
2021/03/21 06:57:05;;;;;;;5.75;3.30;;;;;;;19.07;63.47;103132.91;4994903;28;20048;-62
2021/03/21 07:00:12;;;;;;;6.22;3.17;;;;;;;19.06;63.33;103126.75;4992702;28;20041;-63
2021/03/21 07:02:47;;;;;;;5.95;3.40;;;;;;;19.08;63.06;103119.47;4993758;28;20065;-62
2021/03/21 07:05:37;;;;;;;5.35;3.05;;;;;;;19.07;63.09;103117.78;5011143;28;20125;-63
2021/03/21 07:08:29;;;;;;;4.63;2.90;;;;;;;19.06;63.08;103112.59;5011570;28;20026;-62
2021/03/21 07:11:16;;;;;;;5.57;2.90;;;;;;;19.05;63.41;103118.91;5005917;28;20172;-63
2021/03/21 07:13:59;;;;;;;4.35;2.90;;;;;;;19.07;63.30;103117.78;5007363;28;20041;-62
2021/03/21 07:16:57;;;;;;;5.55;2.70;;;;;;;19.06;63.25;103112.59;5010791;28;20046;-65
2021/03/21 07:20:07;;;;;;;4.72;3.05;;;;;;;19.04;62.95;103118.06;5007077;28;20038;-62
2021/03/21 07:22:44;;;;;;;5.15;3.13;;;;;;;19.05;63.24;103121.56;5001008;28;20026;-63
2021/03/21 07:25:23;;;;;;;13.73;3.55;;;;;;;19.05;63.45;103118.91;5006556;28;20048;-65
2021/03/21 07:27:55;;;;;;;7.07;2.90;;;;;;;19.06;63.03;103121.44;5008537;28;20393;-64
2021/03/21 07:30:34;;;;;;;5.47;2.83;;;;;;;19.08;63.22;103123.94;5006980;28;20026;-65
2021/03/21 07:33:18;;;;;;;9.95;3.25;;;;;;;19.06;63.54;103128.56;5007249;28;20038;-65
2021/03/21 07:36:08;;;;;;;7.28;2.80;;;;;;;19.06;63.61;103118.75;5006860;28;20140;-65
2021/03/21 07:38:55;;;;;;;5.43;2.78;;;;;;;19.09;63.51;103122.97;5005216;28;20036;-63
2021/03/21 07:41:36;;;;;;;12.05;2.80;;;;;;;19.08;63.91;103124.78;5002201;28;20681;-62
2021/03/21 07:44:24;;;;;;;8.18;3.10;;;;;;;19.09;63.86;103137.13;5008421;28;20038;-64
2021/03/21 07:46:58;;;;;;;6.13;2.92;;;;;;;19.11;63.68;103124.53;4999076;28;20095;-62
2021/03/21 07:49:39;;;;;;;8.38;3.15;;;;;;;19.11;64.13;103129.84;5010873;28;20033;-63
2021/03/21 07:52:10;;;;;;;13.88;3.35;;;;;;;19.13;64.32;103127.91;5019282;28;20139;-63
2021/03/21 07:54:47;;;;;;;8.10;2.72;;;;;;;19.12;64.29;103138.69;5009031;28;20034;-68
2021/03/21 07:57:20;;;;;;;6.88;2.78;;;;;;;19.13;64.68;103130.56;5008146;28;20101;-65
2021/03/21 07:59:47;;;;;;;5.55;2.22;;;;;;;19.13;64.68;103132.38;5005793;28;20108;-65
2021/03/21 08:02:18;;;;;;;6.90;2.40;;;;;;;19.14;65.14;103132.25;5007058;28;20153;-63
2021/03/21 08:04:49;;;;;;;7.18;2.70;;;;;;;19.15;64.79;103130.41;5010162;28;20473;-63
2021/03/21 08:07:15;;;;;;;5.68;2.33;;;;;;;19.14;65.07;103132.25;5003118;28;20501;-66
2021/03/21 08:09:41;;;;;;;6.90;2.15;;;;;;;19.15;65.35;103131.25;5008439;28;20088;-66
2021/03/21 08:12:19;;;;;;;5.85;2.60;;;;;;;19.14;65.52;103118.09;5006665;28;20034;-66
2021/03/21 08:14:49;;;;;;;6.60;2.47;;;;;;;19.14;65.45;103123.41;5006996;28;20029;-64
2021/03/21 08:17:35;;;;;;;10.77;2.50;;;;;;;19.13;65.29;103135.88;5008348;28;20473;-63
2021/03/21 08:20:18;;;;;;;5.32;1.90;;;;;;;19.13;64.98;103127.91;5006972;28;20042;-66
2021/03/21 08:22:44;;;;;;;5.13;2.20;;;;;;;19.14;65.29;103121.59;5007013;28;20030;-65
2021/03/21 08:25:31;;;;;;;5.75;2.88;;;;;;;19.13;65.17;103122.56;5006279;28;20045;-66
2021/03/21 08:27:57;;;;;;;6.70;2.83;;;;;;;19.17;65.26;103114.31;4993702;28;20088;-64
2021/03/21 08:30:26;;;;;;;11.93;3.15;;;;;;;19.18;65.48;103126.63;5006657;28;20041;-65
2021/03/21 08:33:02;;;;;;;5.18;2.00;;;;;;;19.16;65.31;103121.47;5005372;28;20080;-63
2021/03/21 08:35:31;;;;;;;5.82;2.30;;;;;;;19.17;65.05;103117.81;5005985;28;20397;-67
2021/03/21 08:38:03;;;;;;;6.45;2.10;;;;;;;19.19;65.18;103123.84;5005278;28;20640;-63
2021/03/21 08:40:36;;;;;;;5.93;1.90;;;;;;;19.20;64.99;103122.00;5006565;28;20492;-62
2021/03/21 08:43:24;;;;;;;8.73;2.28;;;;;;;19.18;64.67;103122.16;5005481;28;20038;-61
2021/03/21 08:45:55;;;;;;;10.07;2.13;;;;;;;19.21;64.58;103115.72;5004452;28;20152;-65
2021/03/21 08:48:31;;;;;;;8.98;2.20;;;;;;;19.21;64.66;103123.69;5005404;28;20180;-68
2021/03/21 08:51:18;;;;;;;6.20;1.65;;;;;;;19.20;64.17;103130.00;5008884;28;20448;-63
2021/03/21 08:53:59;;;;;;;4.28;1.67;;;;;;;19.18;63.69;103122.16;5003130;28;20036;-64
2021/03/21 08:56:26;;;;;;;5.53;2.08;;;;;;;19.20;63.31;103122.00;5005192;28;20038;-63
2021/03/21 08:59:05;;;;;;;7.90;1.98;;;;;;;19.18;63.17;103127.47;5004712;28;20481;-65
2021/03/21 09:01:31;;;;;;;8.50;1.45;;;;;;;19.19;62.91;103133.63;5006659;28;20393;-67
2021/03/21 09:04:14;;;;;;;5.93;1.75;;;;;;;19.17;62.61;103127.63;5003643;28;20052;-63
2021/03/21 09:06:45;;;;;;;4.32;1.65;;;;;;;19.17;62.41;103127.63;5005451;28;20037;-68
2021/03/21 09:09:16;;;;;;;4.85;1.40;;;;;;;19.17;61.80;103136.44;5008970;28;20504;-65
2021/03/21 09:11:44;;;;;;;3.60;1.40;;;;;;;19.17;61.53;103135.59;5010429;28;20547;-69
2021/03/21 09:14:14;;;;;;;4.85;1.25;;;;;;;19.18;61.12;103121.31;5013260;28;20045;-70
2021/03/21 09:17:14;;;;;;;5.65;1.50;;;;;;;19.14;60.84;103124.25;5015568;28;20777;-62
2021/03/21 09:19:41;;;;;;;4.50;1.58;;;;;;;19.17;60.58;103127.63;5001071;28;20038;-65
2021/03/21 09:22:34;;;;;;;6.57;1.33;;;;;;;19.13;60.18;103146.53;4993416;28;20124;-70
2021/03/21 09:25:02;;;;;;;4.88;1.30;;;;;;;19.14;59.85;103132.25;5003987;28;20578;-66
2021/03/21 09:27:33;;;;;;;8.45;1.52;;;;;;;19.13;59.61;103132.38;5005509;28;20040;-64
2021/03/21 09:30:20;;;;;;;5.93;1.40;;;;;;;19.10;59.80;103138.81;5005567;28;20048;-68
2021/03/21 09:32:51;;;;;;;4.75;1.33;;;;;;;19.13;59.22;103140.38;5004838;28;21172;-68
2021/03/21 09:35:32;;;;;;;3.00;1.05;;;;;;;19.10;58.98;103136.16;5013282;28;20041;-68
2021/03/21 09:38:03;;;;;;;8.18;1.40;;;;;;;19.10;58.92;103141.47;4994761;28;20045;-67
2021/03/21 09:40:37;;;;;;;4.13;1.10;;;;;;;19.11;58.99;103145.81;5005124;28;20053;-64
2021/03/21 09:43:09;;;;;;;3.55;1.23;;;;;;;19.09;58.71;103137.13;5003196;28;20026;-65
2021/03/21 09:45:34;;;;;;;4.65;1.20;;;;;;;19.09;58.44;103144.25;5005574;28;20038;-65
2021/03/21 09:48:02;;;;;;;5.43;1.20;;;;;;;19.09;58.27;103142.47;5002189;28;20033;-65
2021/03/21 09:50:50;;;;;;;4.88;1.02;;;;;;;19.06;57.59;103136.56;5003619;28;20779;-64
2021/03/21 09:53:41;;;;;;;3.97;1.05;;;;;;;19.04;57.52;103134.03;5003089;28;20029;-67
2021/03/21 09:56:28;;;;;;;4.28;1.10;;;;;;;19.03;57.15;103150.97;5009630;28;20099;-67
2021/03/21 09:58:59;;;;;;;3.47;1.13;;;;;;;19.04;56.84;103147.31;5009730;28;20065;-70
2021/03/21 10:01:52;;;;;;;5.40;1.27;;;;;;;19.03;57.01;103145.66;5003589;28;20064;-74
2021/03/21 10:04:30;;;;;;;6.22;1.35;;;;;;;19.02;56.91;103149.28;4998857;28;20025;-65
2021/03/21 10:07:00;;;;;;;3.90;1.33;;;;;;;19.03;56.37;103161.59;5005348;28;20185;-68
2021/03/21 10:09:29;;;;;;;6.78;1.20;;;;;;;19.03;56.76;103144.81;5003283;28;20032;-67
2021/03/21 10:12:05;;;;;;;5.25;1.20;;;;;;;19.01;56.14;103149.44;5004231;28;20124;-64
2021/03/21 10:14:30;;;;;;;5.65;1.58;;;;;;;19.02;56.22;103157.25;5008228;28;20048;-65
2021/03/21 10:16:56;;;;;;;4.40;1.00;;;;;;;19.01;56.12;103160.91;5019826;28;20325;-67
2021/03/21 10:19:48;;;;;;;8.05;1.60;;;;;;;18.98;55.85;103152.38;5003052;28;20030;-70
2021/03/21 10:22:17;;;;;;;6.70;1.15;;;;;;;19.00;56.45;103153.91;4994307;28;20035;-64
2021/03/21 10:24:48;;;;;;;4.43;1.20;;;;;;;19.00;55.73;103161.03;4999477;28;20041;-63
2021/03/21 10:27:24;;;;;;;6.93;1.00;;;;;;;19.00;55.67;103156.56;4996412;28;20496;-65
2021/03/21 10:30:18;;;;;;;4.93;1.38;;;;;;;18.98;55.82;103142.56;5004967;28;20060;-64
2021/03/21 10:32:49;;;;;;;5.70;1.23;;;;;;;18.99;56.11;103152.22;5003889;28;20030;-64
2021/03/21 10:35:41;;;;;;;4.97;1.50;;;;;;;18.98;56.29;103141.72;4999368;28;20562;-63
2021/03/21 10:38:43;;;;;;;4.47;0.93;;;;;;;18.97;56.28;103148.88;5001557;28;20456;-64
2021/03/21 10:41:08;;;;;;;3.75;1.10;;;;;;;19.00;56.13;103142.44;5013466;28;20042;-63
2021/03/21 10:43:35;;;;;;;14.55;1.83;;;;;;;19.00;56.23;103132.63;5004035;28;20032;-65
2021/03/21 10:46:00;;;;;;;8.75;1.92;;;;;;;19.01;56.29;103136.13;5006880;28;20196;-63
2021/03/21 10:48:26;;;;;;;9.30;2.20;;;;;;;18.99;55.98;103133.59;5006141;28;20120;-63
2021/03/21 10:51:06;;;;;;;13.07;2.63;;;;;;;18.98;56.26;103136.41;5007779;28;20045;-65
2021/03/21 10:53:39;;;;;;;8.07;2.47;;;;;;;18.97;56.34;103127.59;5007786;28;20030;-63
2021/03/21 10:56:17;;;;;;;10.15;2.00;;;;;;;18.97;56.12;103134.72;5007008;28;20041;-60
2021/03/21 10:58:45;;;;;;;8.40;2.10;;;;;;;18.97;56.26;103132.91;5008028;28;20030;-60
2021/03/21 11:01:17;;;;;;;7.07;2.00;;;;;;;18.95;55.83;103132.19;5006410;28;20424;-68
2021/03/21 11:04:06;;;;;;;9.05;2.55;;;;;;;18.93;55.91;103120.84;5004249;28;20045;-63
2021/03/21 11:06:47;;;;;;;9.45;2.17;;;;;;;18.96;55.63;103128.56;4997229;28;20391;-69
2021/03/21 11:09:16;;;;;;;9.15;2.42;;;;;;;18.96;55.98;103119.75;4998594;28;20060;-63
2021/03/21 11:11:44;;;;;;;6.82;2.28;;;;;;;18.94;55.76;103121.72;5006320;28;20426;-64
2021/03/21 11:14:39;;;;;;;9.60;2.15;;;;;;;18.90;55.90;103118.44;5007408;28;20084;-65
2021/03/21 11:17:21;;;;;;;8.68;1.95;;;;;;;18.91;55.41;103117.47;4971841;28;20046;-63
2021/03/21 11:19:53;;;;;;;8.60;2.13;;;;;;;18.91;55.34;103114.81;5006723;28;20457;-65
2021/03/21 11:22:27;;;;;;;10.60;2.50;;;;;;;18.92;55.26;103110.34;5006243;28;20037;-63
2021/03/21 11:24:52;;;;;;;8.23;1.58;;;;;;;18.92;55.41;103108.50;5008048;28;20060;-63
2021/03/21 11:27:32;;;;;;;8.95;2.10;;;;;;;18.88;55.34;103112.44;5006310;28;20045;-63
2021/03/21 11:30:11;;;;;;;6.60;2.15;;;;;;;18.89;55.25;103105.28;5005143;28;20034;-69
2021/03/21 11:32:37;;;;;;;5.85;1.70;;;;;;;18.90;54.95;103099.00;5006635;28;20034;-64
2021/03/21 11:35:34;;;;;;;5.47;1.67;;;;;;;18.87;54.98;103102.78;5006641;28;20025;-67
2021/03/21 11:37:59;;;;;;;6.53;2.08;;;;;;;18.87;55.01;103102.78;4998656;28;20053;-63
2021/03/21 11:40:31;;;;;;;6.65;1.58;;;;;;;18.85;55.00;103089.63;5012563;28;20042;-63
2021/03/21 11:43:08;;;;;;;5.78;1.45;;;;;;;18.86;54.62;103082.47;5009367;28;20431;-63
2021/03/21 11:45:37;;;;;;;4.15;1.75;;;;;;;18.86;54.96;103077.16;5009114;28;20133;-63
2021/03/21 11:48:09;;;;;;;4.35;1.55;;;;;;;18.85;54.58;103084.28;5007764;28;20500;-64
2021/03/21 11:50:37;;;;;;;4.90;1.58;;;;;;;18.87;54.65;103078.00;5015468;28;20457;-64
2021/03/21 11:53:05;;;;;;;4.72;1.70;;;;;;;18.87;54.83;103081.50;5011018;28;20042;-63
2021/03/21 11:55:37;;;;;;;4.45;1.50;;;;;;;18.87;54.48;103084.16;5003522;28;20089;-65
2021/03/21 11:58:18;;;;;;;5.72;1.60;;;;;;;18.86;54.53;103077.16;5009689;28;20029;-64
2021/03/21 12:00:56;;;;;;;5.80;1.33;;;;;;;18.84;54.63;103063.16;5004214;28;20493;-63
2021/03/21 12:03:23;;;;;;;5.22;1.63;;;;;;;18.84;54.50;103069.31;5004271;28;20069;-65